Time;durP1;ratioP1;P1;durP2;ratioP2;P2;SDS_P1;SDS_P2;PMS_P1;PMS_P2;Temp;Humidity;BMP_temperature;BMP_pressure;BME280_temperature;BME280_humidity;BME280_pressure;Samples;Min_cycle;Max_cycle;Signal;HPM_P1;HPM_P2
2022/11/09 00:01:31;;;;;;;40.65;23.98;;;;;;;9.12;95.31;101173.69;5072272;28;20163;-72
2022/11/09 00:04:00;;;;;;;38.60;23.48;;;;;;;9.36;95.55;101220.50;5071075;28;20032;-72
2022/11/09 00:06:26;;;;;;;34.50;23.85;;;;;;;9.30;95.54;101222.75;5071868;28;20035;-72
2022/11/09 00:08:52;;;;;;;34.40;23.05;;;;;;;9.35;95.55;101216.16;5072522;28;20025;-72
2022/11/09 00:11:18;;;;;;;37.80;23.60;;;;;;;9.30;94.98;101212.44;5072724;28;20136;-78
2022/11/09 00:13:44;;;;;;;33.80;22.60;;;;;;;9.35;95.07;101226.47;5072263;28;20479;-76
2022/11/09 00:16:13;;;;;;;45.70;23.00;;;;;;;9.36;95.08;101220.50;5070786;28;20024;-75
2022/11/09 00:18:40;;;;;;;35.72;22.75;;;;;;;9.39;94.57;101225.81;5071930;28;20038;-75
2022/11/09 00:21:11;;;;;;;30.85;22.80;;;;;;;9.46;94.17;101221.88;5071809;28;20017;-75
2022/11/09 00:23:37;;;;;;;38.88;22.77;;;;;;;9.50;93.88;101232.44;5071975;28;20033;-73
2022/11/09 00:26:05;;;;;;;36.95;22.15;;;;;;;9.49;93.64;101225.50;5072085;28;20037;-73
2022/11/09 00:28:31;;;;;;;40.42;23.17;;;;;;;9.45;94.01;101228.72;5071991;28;20036;-72
2022/11/09 00:31:09;;;;;;;36.47;22.27;;;;;;;9.14;94.94;101214.16;5071679;28;20033;-73
2022/11/09 00:33:35;;;;;;;34.97;22.67;;;;;;;8.82;95.47;101172.09;5070288;28;20574;-72
2022/11/09 00:36:10;;;;;;;34.75;21.92;;;;;;;9.12;95.58;101213.22;5070388;28;20025;-73
2022/11/09 00:38:39;;;;;;;32.38;21.48;;;;;;;9.19;94.95;101215.31;5071858;28;20501;-76
2022/11/09 00:41:06;;;;;;;32.38;21.85;;;;;;;9.22;95.09;101220.66;5071528;28;20033;-74
2022/11/09 00:43:32;;;;;;;38.25;21.60;;;;;;;9.21;93.99;101213.72;5071710;28;20020;-72
2022/11/09 00:45:57;;;;;;;36.17;21.58;;;;;;;9.05;93.35;101218.84;5069806;28;20033;-74
2022/11/09 00:48:23;;;;;;;32.53;20.92;;;;;;;8.52;93.11;101122.38;5071794;28;20490;-73
2022/11/09 00:50:53;;;;;;;31.55;20.77;;;;;;;8.92;93.81;101213.78;5071641;28;20025;-77
2022/11/09 00:53:20;;;;;;;31.38;20.80;;;;;;;8.88;94.00;101208.50;5071454;28;20390;-73
2022/11/09 00:56:06;;;;;;;38.17;22.30;;;;;;;8.87;93.69;101210.97;5085890;28;20076;-74
2022/11/09 00:58:34;;;;;;;35.08;21.83;;;;;;;8.83;93.72;101209.03;5070700;28;20032;-73
2022/11/09 01:01:10;;;;;;;36.28;21.40;;;;;;;8.76;94.32;101202.66;5071215;28;20070;-71
2022/11/09 01:03:36;;;;;;;33.03;20.60;;;;;;;8.76;94.25;101196.59;5070950;28;20486;-76
2022/11/09 01:06:01;;;;;;;36.50;21.60;;;;;;;8.78;94.26;101189.88;5068219;28;20036;-75
2022/11/09 01:08:27;;;;;;;35.53;20.85;;;;;;;8.87;93.93;101200.66;5051858;28;20108;-73
2022/11/09 01:10:52;;;;;;;33.45;21.42;;;;;;;8.90;94.01;101200.84;5068339;28;20041;-75
2022/11/09 01:13:18;;;;;;;30.17;20.10;;;;;;;8.87;94.04;101193.84;5051448;28;20506;-75
2022/11/09 01:15:52;;;;;;;37.47;20.55;;;;;;;8.46;94.33;101130.66;5051541;28;20066;-72
2022/11/09 01:18:19;;;;;;;34.83;20.75;;;;;;;8.76;94.42;101186.31;5068303;28;20120;-72
2022/11/09 01:20:46;;;;;;;31.88;21.02;;;;;;;8.70;94.13;101186.88;5068144;28;20024;-71
2022/11/09 01:23:13;;;;;;;31.63;20.65;;;;;;;8.67;94.51;101190.16;5068334;28;20027;-75
2022/11/09 01:25:39;;;;;;;31.35;20.58;;;;;;;8.70;94.46;101192.00;5067941;28;20090;-73
2022/11/09 01:28:06;;;;;;;33.97;20.38;;;;;;;8.72;94.88;101193.88;5067950;28;20024;-75
2022/11/09 01:30:36;;;;;;;31.67;19.38;;;;;;;8.57;94.61;101173.31;5067901;28;20041;-72
2022/11/09 01:33:06;;;;;;;28.85;18.75;;;;;;;8.66;95.03;101197.78;5068120;28;20020;-72
2022/11/09 01:35:33;;;;;;;34.75;21.33;;;;;;;8.51;96.34;101197.78;5068172;28;20086;-71
2022/11/09 01:37:59;;;;;;;32.72;21.70;;;;;;;8.06;98.76;101193.50;5067655;28;20431;-74
2022/11/09 01:40:27;;;;;;;35.10;20.50;;;;;;;7.77;100.00;101194.34;5067964;28;20036;-75
2022/11/09 01:42:52;;;;;;;36.20;22.55;;;;;;;7.93;100.00;101217.59;5068350;28;20040;-71
2022/11/09 01:45:17;;;;;;;33.33;21.63;;;;;;;8.05;99.53;101219.13;5070409;28;20543;-72
2022/11/09 01:47:46;;;;;;;37.00;21.45;;;;;;;8.08;98.96;101211.59;5068767;28;20441;-75
2022/11/09 01:50:14;;;;;;;33.22;21.30;;;;;;;7.94;99.26;101208.22;5070211;28;20025;-74
2022/11/09 01:52:45;;;;;;;36.38;22.38;;;;;;;7.92;99.23;101220.09;5070107;28;20032;-75
2022/11/09 01:55:14;;;;;;;32.45;22.42;;;;;;;7.55;99.50;101169.94;5069131;28;20472;-74
2022/11/09 01:57:44;;;;;;;38.35;20.80;;;;;;;7.59;100.00;101215.56;5070165;28;20133;-74
2022/11/09 02:00:13;;;;;;;33.53;20.48;;;;;;;7.59;100.00;101224.97;5069135;28;20078;-71
2022/11/09 02:02:45;;;;;;;34.58;21.42;;;;;;;7.37;100.00;101169.69;5070064;28;20040;-72
2022/11/09 02:05:16;;;;;;;34.63;22.20;;;;;;;7.28;100.00;101146.91;5069605;28;20112;-71
2022/11/09 02:07:42;;;;;;;35.38;21.77;;;;;;;7.57;100.00;101224.84;5068980;28;20029;-72
2022/11/09 02:10:21;;;;;;;37.60;21.45;;;;;;;7.48;100.00;101226.88;5070420;28;20069;-72
2022/11/09 02:12:47;;;;;;;38.30;23.17;;;;;;;7.47;100.00;101221.66;5070378;28;20063;-72
2022/11/09 02:15:13;;;;;;;41.72;24.80;;;;;;;7.50;100.00;101220.16;5069880;28;20124;-71
2022/11/09 02:17:41;;;;;;;42.08;25.52;;;;;;;7.51;100.00;101226.19;5069975;28;20028;-72
2022/11/09 02:20:12;;;;;;;44.88;25.38;;;;;;;7.49;100.00;101220.03;5069805;28;20510;-73
2022/11/09 02:22:38;;;;;;;41.22;25.67;;;;;;;7.41;100.00;101223.06;5069724;28;20060;-76
2022/11/09 02:25:04;;;;;;;41.28;24.90;;;;;;;7.28;100.00;101211.09;5070017;28;20029;-71
2022/11/09 02:27:30;;;;;;;39.92;23.38;;;;;;;7.16;100.00;101173.53;5069943;28;20471;-71
2022/11/09 02:29:57;;;;;;;39.88;24.08;;;;;;;7.40;100.00;101218.69;5069766;28;20437;-71
2022/11/09 02:32:27;;;;;;;40.55;23.80;;;;;;;6.97;100.00;101162.97;5068218;28;20036;-71
2022/11/09 02:34:52;;;;;;;39.45;22.55;;;;;;;7.17;100.00;101200.97;5070439;28;20029;-71
2022/11/09 02:37:34;;;;;;;35.20;22.10;;;;;;;7.32;100.00;101217.31;5070076;28;20028;-70
2022/11/09 02:40:03;;;;;;;36.38;20.77;;;;;;;7.38;100.00;101216.84;5071609;28;20020;-74
2022/11/09 02:42:28;;;;;;;35.03;20.95;;;;;;;7.44;100.00;101220.66;5073661;28;20056;-74
2022/11/09 02:44:57;;;;;;;33.60;20.58;;;;;;;7.55;100.00;101220.41;5073379;28;20170;-71
2022/11/09 02:47:23;;;;;;;25.45;16.30;;;;;;;7.48;100.00;101207.97;5074110;28;20052;-74
2022/11/09 02:49:49;;;;;;;32.42;20.48;;;;;;;7.57;100.00;101214.56;5073760;28;20033;-72
2022/11/09 02:52:15;;;;;;;34.83;21.42;;;;;;;7.52;100.00;101218.56;5073779;28;20024;-72
2022/11/09 02:54:40;;;;;;;30.88;21.23;;;;;;;7.59;100.00;101220.72;5073616;28;20025;-72
2022/11/09 02:57:05;;;;;;;28.67;20.25;;;;;;;7.58;100.00;101213.78;5072330;28;20036;-72
2022/11/09 02:59:31;;;;;;;39.95;22.83;;;;;;;7.61;100.00;101214.00;5073092;28;20054;-73
2022/11/09 03:01:56;;;;;;;34.20;21.13;;;;;;;7.64;100.00;101210.72;5073536;28;20074;-73
2022/11/09 03:04:22;;;;;;;38.47;22.15;;;;;;;7.44;100.00;101166.72;5073523;28;20538;-76
2022/11/09 03:06:47;;;;;;;36.25;21.30;;;;;;;7.82;100.00;101231.50;5073205;28;20478;-75
2022/11/09 03:09:13;;;;;;;35.75;22.30;;;;;;;7.90;100.00;101225.13;5073573;28;20034;-75
2022/11/09 03:11:40;;;;;;;39.40;22.60;;;;;;;7.91;100.00;101234.63;5073090;28;20042;-71
2022/11/09 03:14:06;;;;;;;34.35;22.35;;;;;;;7.98;100.00;101224.72;5071412;28;20027;-75
2022/11/09 03:16:31;;;;;;;34.55;21.60;;;;;;;8.10;100.00;101228.03;5073382;28;20033;-72
2022/11/09 03:18:57;;;;;;;31.60;16.65;;;;;;;7.88;100.00;101179.56;5073227;28;20056;-73
2022/11/09 03:21:23;;;;;;;37.05;15.63;;;;;;;8.21;100.00;101221.81;5073456;28;20510;-74
2022/11/09 03:23:49;;;;;;;34.58;15.15;;;;;;;7.99;100.00;101180.19;5072847;28;20064;-75
2022/11/09 03:26:16;;;;;;;30.90;15.23;;;;;;;8.13;100.00;101214.44;5072834;28;20040;-71
2022/11/09 03:28:41;;;;;;;27.08;14.60;;;;;;;7.94;100.00;101175.66;5072979;28;20041;-71
2022/11/09 03:31:07;;;;;;;28.42;15.07;;;;;;;8.34;100.00;101218.25;5073069;28;20028;-71
2022/11/09 03:33:33;;;;;;;33.80;15.88;;;;;;;8.43;100.00;101213.63;5072828;28;20039;-71
2022/11/09 03:35:59;;;;;;;24.75;14.75;;;;;;;8.54;100.00;101221.13;5072749;28;20451;-71
2022/11/09 03:38:24;;;;;;;28.70;14.02;;;;;;;8.53;100.00;101214.22;5072800;28;20028;-71
2022/11/09 03:40:50;;;;;;;21.38;12.73;;;;;;;8.56;100.00;101217.84;5073080;28;20029;-74
2022/11/09 03:43:15;;;;;;;28.13;13.40;;;;;;;8.44;100.00;101222.25;5072451;28;20031;-71
2022/11/09 03:45:41;;;;;;;22.30;13.23;;;;;;;8.34;100.00;101210.53;5072903;28;20037;-72
2022/11/09 03:48:06;;;;;;;25.40;13.07;;;;;;;8.45;100.00;101220.56;5072503;28;20063;-76
2022/11/09 03:50:33;;;;;;;26.50;12.13;;;;;;;8.47;100.00;101219.88;5072850;28;20596;-72
2022/11/09 03:53:00;;;;;;;21.35;12.70;;;;;;;8.31;100.00;101176.03;5072451;28;20032;-76
2022/11/09 03:55:26;;;;;;;30.10;16.67;;;;;;;8.61;100.00;101220.69;5072529;28;20040;-73
2022/11/09 03:57:52;;;;;;;21.80;13.43;;;;;;;8.67;100.00;101217.56;5072088;28;20457;-70
2022/11/09 04:00:20;;;;;;;28.88;16.42;;;;;;;8.54;100.00;101232.31;5071298;28;20028;-71
2022/11/09 04:02:45;;;;;;;27.05;17.23;;;;;;;8.48;100.00;101233.66;5072461;28;20028;-72
2022/11/09 04:05:11;;;;;;;31.20;18.70;;;;;;;8.37;100.00;101227.84;5072196;28;20028;-71
2022/11/09 04:07:37;;;;;;;36.60;20.90;;;;;;;8.23;100.00;101212.47;5072302;28;20052;-75
2022/11/09 04:10:04;;;;;;;35.53;22.15;;;;;;;8.20;100.00;101229.41;5072106;28;20029;-74
2022/11/09 04:12:30;;;;;;;36.67;21.30;;;;;;;8.16;100.00;101235.19;5071968;28;20036;-72
2022/11/09 04:14:55;;;;;;;36.17;21.13;;;;;;;8.12;100.00;101238.38;5072214;28;20033;-72
2022/11/09 04:17:20;;;;;;;33.40;19.98;;;;;;;8.15;100.00;101234.31;5072269;28;20035;-72
2022/11/09 04:19:46;;;;;;;34.33;22.02;;;;;;;8.10;100.00;101240.88;5072122;28;20483;-73
2022/11/09 04:22:11;;;;;;;37.58;20.75;;;;;;;7.58;100.00;101144.41;5071827;28;20040;-73
2022/11/09 04:24:37;;;;;;;36.03;21.83;;;;;;;8.17;100.00;101242.13;5071853;28;20043;-78
2022/11/09 04:27:02;;;;;;;49.55;24.15;;;;;;;8.12;100.00;101235.81;5072319;28;20043;-76
2022/11/09 04:29:28;;;;;;;38.40;22.23;;;;;;;8.13;100.00;101246.19;5071855;28;20412;-75
2022/11/09 04:31:53;;;;;;;39.40;21.65;;;;;;;8.14;99.85;101239.34;5072082;28;20032;-75
2022/11/09 04:34:18;;;;;;;41.08;22.33;;;;;;;8.08;99.43;101245.03;5071815;28;20036;-75
2022/11/09 04:36:44;;;;;;;44.50;22.17;;;;;;;7.57;99.35;101209.44;5072026;28;20107;-78
2022/11/09 04:39:10;;;;;;;33.80;20.65;;;;;;;7.64;99.57;101250.94;5071441;28;20111;-75
2022/11/09 04:41:36;;;;;;;30.77;19.98;;;;;;;7.55;99.97;101252.16;5071714;28;20151;-77
2022/11/09 04:44:01;;;;;;;32.40;20.45;;;;;;;7.58;99.63;101256.59;5070254;28;20044;-72
2022/11/09 04:46:27;;;;;;;33.63;19.13;;;;;;;7.64;98.67;101250.94;5071631;28;20119;-72
2022/11/09 04:48:53;;;;;;;36.55;20.45;;;;;;;7.78;97.86;101252.69;5071423;28;20482;-76
2022/11/09 04:51:18;;;;;;;26.83;18.40;;;;;;;7.77;97.85;101256.03;5071337;28;20036;-77
2022/11/09 04:53:44;;;;;;;31.20;20.60;;;;;;;7.82;97.99;101257.19;5071420;28;20036;-76
2022/11/09 04:56:10;;;;;;;33.13;19.67;;;;;;;7.83;98.29;101258.09;5070880;28;20457;-73
2022/11/09 04:58:35;;;;;;;40.42;20.10;;;;;;;7.83;98.24;101247.81;5071268;28;20056;-76
2022/11/09 05:01:10;;;;;;;30.80;19.58;;;;;;;7.94;97.79;101259.63;5071445;28;20123;-75
2022/11/09 05:03:35;;;;;;;32.17;19.75;;;;;;;7.82;97.60;101256.31;5070673;28;20043;-75
2022/11/09 05:06:30;;;;;;;38.35;20.35;;;;;;;7.71;98.07;101256.56;5071334;28;20029;-72
2022/11/09 05:08:47;;;;;;;38.42;20.00;;;;;;;7.80;98.11;101258.81;5070881;28;20518;-75
2022/11/09 05:11:12;;;;;;;31.67;20.77;;;;;;;7.46;97.87;101215.59;5070403;28;20025;-73
2022/11/09 05:13:37;;;;;;;28.58;20.00;;;;;;;7.68;98.01;101260.63;5069109;28;20029;-71
2022/11/09 05:16:03;;;;;;;32.60;20.75;;;;;;;7.39;98.36;101236.56;5067426;28;20024;-76
2022/11/09 05:18:28;;;;;;;34.67;20.75;;;;;;;7.58;98.27;101267.75;5067975;28;20067;-70
2022/11/09 05:20:58;;;;;;;34.92;20.05;;;;;;;7.50;98.20;101268.06;5064738;28;20472;-73
2022/11/09 05:26:08;;;;;;;37.55;19.67;;;;;;;7.29;98.72;101238.56;5071372;28;20032;-73
2022/11/09 05:28:33;;;;;;;35.75;20.52;;;;;;;7.61;98.19;101288.53;5071301;28;20402;-75
2022/11/09 05:30:58;;;;;;;32.10;19.23;;;;;;;7.55;98.63;101287.22;5071178;28;20052;-72
2022/11/09 05:33:24;;;;;;;41.53;20.48;;;;;;;7.53;99.17;101292.28;5071074;28;20028;-70
2022/11/09 05:35:49;;;;;;;32.88;20.63;;;;;;;7.45;99.39;101288.31;5071096;28;20025;-73
2022/11/09 05:38:15;;;;;;;38.78;20.92;;;;;;;7.57;99.92;101307.09;5070945;28;20063;-76
2022/11/09 05:40:40;;;;;;;34.47;20.42;;;;;;;7.58;99.78;101303.72;5070833;28;20024;-77
2022/11/09 05:43:05;;;;;;;31.50;20.65;;;;;;;7.57;100.00;101306.22;5071022;28;20029;-72
2022/11/09 05:45:31;;;;;;;39.83;22.33;;;;;;;7.53;100.00;101296.53;5070615;28;20171;-69
2022/11/09 05:47:56;;;;;;;48.42;23.27;;;;;;;7.47;100.00;101309.88;5051101;28;20080;-75
2022/11/09 05:50:22;;;;;;;38.47;21.25;;;;;;;7.43;100.00;101283.09;5050698;28;20118;-73
2022/11/09 05:52:47;;;;;;;35.97;21.48;;;;;;;7.42;100.00;101306.13;5051199;28;20166;-75
2022/11/09 05:55:13;;;;;;;37.17;21.98;;;;;;;7.31;100.00;101297.75;5051135;28;20033;-75
2022/11/09 05:57:38;;;;;;;45.60;23.25;;;;;;;7.45;100.00;101306.31;5050792;28;20040;-72
2022/11/09 06:00:04;;;;;;;51.03;23.55;;;;;;;7.49;100.00;101312.53;5051760;28;20025;-74
2022/11/09 06:02:31;;;;;;;35.08;22.00;;;;;;;7.52;100.00;101311.06;5056297;28;20041;-75
2022/11/09 06:04:56;;;;;;;42.47;22.23;;;;;;;7.48;99.51;101309.09;5054459;28;20114;-75
2022/11/09 06:07:22;;;;;;;42.47;22.10;;;;;;;7.53;99.38;101315.41;5049475;28;20060;-75
2022/11/09 06:10:07;;;;;;;41.60;22.08;;;;;;;7.60;99.36;101330.44;5049727;28;20485;-76
2022/11/09 06:12:33;;;;;;;36.45;20.95;;;;;;;7.50;99.30;101319.47;5049175;28;20115;-73
2022/11/09 06:14:59;;;;;;;34.40;21.35;;;;;;;7.51;100.00;101327.25;5045881;28;20515;-76
2022/11/09 06:17:24;;;;;;;33.78;20.00;;;;;;;7.54;100.00;101329.13;5046746;28;20044;-75
2022/11/09 06:19:49;;;;;;;34.72;20.13;;;;;;;7.57;100.00;101314.78;5047168;28;20036;-72
2022/11/09 06:22:15;;;;;;;29.75;20.75;;;;;;;7.78;99.98;101330.66;5046819;28;20035;-73
2022/11/09 06:24:40;;;;;;;38.78;21.45;;;;;;;7.87;100.00;101324.31;5030104;28;20449;-72
2022/11/09 06:27:06;;;;;;;33.13;20.83;;;;;;;7.96;99.70;101332.59;5046897;28;20029;-71
2022/11/09 06:29:32;;;;;;;39.97;22.35;;;;;;;7.71;100.00;101332.75;5059625;28;20038;-75
2022/11/09 06:31:57;;;;;;;34.50;21.58;;;;;;;7.70;100.00;101329.31;5032022;28;20178;-70
2022/11/09 06:34:22;;;;;;;34.28;20.95;;;;;;;7.85;100.00;101334.53;5057401;28;20129;-70
2022/11/09 06:36:48;;;;;;;33.38;21.63;;;;;;;7.89;100.00;101331.34;5050364;28;20440;-69
2022/11/09 06:39:13;;;;;;;34.97;20.83;;;;;;;7.99;100.00;101347.31;5067363;28;20040;-71
2022/11/09 06:41:39;;;;;;;41.80;22.10;;;;;;;8.09;100.00;101347.13;5067645;28;20491;-76
2022/11/09 06:44:05;;;;;;;39.53;21.52;;;;;;;8.18;100.00;101339.06;5048393;28;20028;-72
2022/11/09 06:46:31;;;;;;;31.80;21.05;;;;;;;8.05;99.71;101297.16;5069593;28;20039;-70
2022/11/09 06:48:57;;;;;;;36.67;21.95;;;;;;;7.98;99.16;101260.72;5069602;28;20025;-75
2022/11/09 06:51:22;;;;;;;36.90;20.92;;;;;;;8.49;99.44;101340.94;5069986;28;20554;-71
2022/11/09 06:53:48;;;;;;;36.13;22.98;;;;;;;8.50;99.17;101353.00;5069988;28;20499;-74
2022/11/09 06:56:13;;;;;;;39.80;24.60;;;;;;;8.39;99.88;101332.63;5069917;28;20028;-74
2022/11/09 06:58:38;;;;;;;37.45;24.48;;;;;;;8.19;100.00;101295.41;5069696;28;20460;-72
2022/11/09 07:01:12;;;;;;;41.15;25.13;;;;;;;8.57;100.00;101348.31;5070100;28;20037;-73
2022/11/09 07:03:38;;;;;;;37.85;24.40;;;;;;;8.54;100.00;101334.38;5070469;28;20083;-73
2022/11/09 07:06:05;;;;;;;42.67;25.80;;;;;;;8.65;100.00;101340.13;5069927;28;20514;-73
2022/11/09 07:08:31;;;;;;;40.47;25.33;;;;;;;8.41;100.00;101325.91;5069907;28;20035;-70
2022/11/09 07:11:03;;;;;;;37.42;25.45;;;;;;;8.19;100.00;101295.41;5063494;28;20028;-75
2022/11/09 07:13:28;;;;;;;39.53;26.48;;;;;;;8.65;100.00;101342.72;5049626;28;20691;-72
2022/11/09 07:15:53;;;;;;;45.50;26.88;;;;;;;8.57;100.00;101340.59;5049885;28;20117;-73
2022/11/09 07:18:19;;;;;;;37.92;25.60;;;;;;;8.67;100.00;101328.25;5050187;28;20021;-72
2022/11/09 07:20:44;;;;;;;37.85;25.33;;;;;;;8.60;100.00;101333.84;5049869;28;20106;-70
2022/11/09 07:23:10;;;;;;;42.42;26.85;;;;;;;8.64;100.00;101333.25;5049795;28;20116;-72
2022/11/09 07:25:35;;;;;;;42.17;26.88;;;;;;;8.75;100.00;101321.88;5050699;28;20465;-74
2022/11/09 07:28:03;;;;;;;45.17;25.13;;;;;;;8.85;100.00;101331.91;5053534;28;20029;-73
2022/11/09 07:30:28;;;;;;;45.00;28.35;;;;;;;8.90;100.00;101325.31;5053640;28;20078;-71
2022/11/09 07:32:53;;;;;;;47.10;27.15;;;;;;;9.11;100.00;101332.50;5053334;28;20033;-74
2022/11/09 07:35:19;;;;;;;43.13;27.15;;;;;;;9.28;100.00;101330.00;5058547;28;20465;-74
2022/11/09 07:37:44;;;;;;;39.70;26.40;;;;;;;9.35;100.00;101327.84;5073289;28;20028;-73
2022/11/09 07:40:10;;;;;;;42.17;26.65;;;;;;;9.43;100.00;101333.41;5073722;28;20547;-71
2022/11/09 07:42:35;;;;;;;41.53;27.15;;;;;;;9.57;100.00;101330.72;5073190;28;20050;-73
2022/11/09 07:45:01;;;;;;;40.38;27.05;;;;;;;9.71;100.00;101317.78;5073143;28;20593;-71
2022/11/09 07:47:26;;;;;;;42.50;26.38;;;;;;;9.83;100.00;101322.72;5073022;28;20189;-72
2022/11/09 08:40:31;;;;;;;24.50;15.38;;;;;;;10.26;100.00;101251.81;5098679;27;20411;-66
2022/11/09 08:43:02;;;;;;;25.35;16.58;;;;;;;10.91;100.00;101327.38;5088480;28;20036;-67
2022/11/09 08:45:29;;;;;;;25.60;15.02;;;;;;;11.10;100.00;101323.09;5089422;28;20041;-67
2022/11/09 08:47:58;;;;;;;24.77;15.80;;;;;;;11.38;100.00;101327.03;5088135;28;21626;-66
2022/11/09 08:50:25;;;;;;;24.00;14.57;;;;;;;11.04;100.00;101233.28;5085386;28;20060;-66
2022/11/09 08:52:50;;;;;;;21.95;13.82;;;;;;;11.70;100.00;101314.69;5086962;28;20021;-66
2022/11/09 08:55:15;;;;;;;22.02;14.88;;;;;;;11.88;99.18;101330.19;5086767;28;20032;-67
2022/11/09 08:57:41;;;;;;;25.02;15.45;;;;;;;12.00;98.94;101322.13;5104603;28;20425;-66
2022/11/09 09:00:07;;;;;;;19.52;14.27;;;;;;;12.13;98.12;101327.91;5104833;28;20047;-66
2022/11/09 09:02:33;;;;;;;26.40;15.23;;;;;;;12.35;97.45;101317.59;5104818;28;20032;-67
2022/11/09 09:04:58;;;;;;;18.27;12.52;;;;;;;12.04;97.42;101291.28;5104909;28;20043;-67
2022/11/09 09:07:24;;;;;;;17.20;13.63;;;;;;;12.31;97.42;101321.75;5104619;28;20040;-67
2022/11/09 09:09:49;;;;;;;17.95;13.02;;;;;;;12.33;96.61;101283.00;5104644;28;20499;-66
2022/11/09 09:12:16;;;;;;;28.48;14.85;;;;;;;12.69;95.90;101313.88;5104566;28;20050;-66
2022/11/09 09:14:42;;;;;;;19.92;12.48;;;;;;;12.81;95.47;101305.72;5085019;28;20496;-67
2022/11/09 09:17:07;;;;;;;22.42;13.52;;;;;;;12.68;95.62;101312.09;5104530;28;20038;-66
2022/11/09 09:19:33;;;;;;;22.35;12.60;;;;;;;12.82;95.42;101307.50;5104662;28;20024;-67
2022/11/09 09:21:59;;;;;;;30.63;13.05;;;;;;;13.04;94.59;101310.13;5104423;28;20111;-66
2022/11/09 09:24:25;;;;;;;20.50;12.38;;;;;;;13.24;93.76;101303.13;5087152;28;20130;-67
2022/11/09 09:26:51;;;;;;;20.27;12.68;;;;;;;13.34;93.12;101306.13;5104179;28;20460;-66
2022/11/09 09:29:16;;;;;;;22.40;11.45;;;;;;;13.35;93.00;101308.75;5090777;28;20048;-67
2022/11/09 09:31:41;;;;;;;21.98;12.82;;;;;;;13.45;92.37;101309.16;5086835;28;20036;-66
2022/11/09 09:34:07;;;;;;;21.17;12.88;;;;;;;13.50;92.45;101305.91;5086248;28;20016;-66
2022/11/09 09:36:34;;;;;;;18.92;12.32;;;;;;;13.64;92.05;101290.00;5086561;28;20029;-66
2022/11/09 09:39:00;;;;;;;22.10;12.00;;;;;;;13.31;91.11;101204.84;5086063;28;20044;-66
2022/11/09 09:41:51;;;;;;;16.85;10.90;;;;;;;13.97;90.69;101298.13;5086404;28;20330;-66
2022/11/09 09:44:37;;;;;;;16.33;11.07;;;;;;;13.94;90.36;101299.75;5086206;28;20036;-67
2022/11/09 09:47:09;;;;;;;17.30;11.60;;;;;;;14.09;89.76;101287.28;5086416;28;20024;-67
2022/11/09 09:49:41;;;;;;;15.30;10.13;;;;;;;13.99;89.51;101273.09;5084851;28;20069;-67
2022/11/09 09:52:09;;;;;;;19.02;10.82;;;;;;;14.16;89.27;101280.63;5072473;28;20055;-67
2022/11/09 09:54:43;;;;;;;16.92;10.13;;;;;;;14.30;88.54;101284.56;5072723;28;20428;-67
2022/11/09 09:57:18;;;;;;;18.70;11.07;;;;;;;14.43;87.81;101272.91;5072656;28;20049;-66
2022/11/09 09:59:48;;;;;;;14.07;10.73;;;;;;;14.48;87.03;101279.13;5071251;28;20040;-66
2022/11/09 10:02:24;;;;;;;17.65;10.30;;;;;;;14.72;87.23;101275.63;5071982;28;20493;-66
2022/11/09 10:04:51;;;;;;;13.98;9.32;;;;;;;14.82;85.99;101269.88;5072268;28;20040;-66
2022/11/09 10:07:23;;;;;;;14.43;9.27;;;;;;;14.89;85.82;101263.16;5086640;28;20044;-67
2022/11/09 10:10:16;;;;;;;15.35;10.07;;;;;;;14.97;84.99;101266.03;5072056;28;20029;-67
2022/11/09 10:12:41;;;;;;;15.77;9.50;;;;;;;14.10;85.92;101083.06;5072132;28;20024;-68
2022/11/09 10:15:18;;;;;;;19.35;9.80;;;;;;;15.10;84.43;101262.06;5071970;28;20114;-66
2022/11/09 10:18:04;;;;;;;13.20;9.40;;;;;;;15.17;83.64;101259.72;5072480;28;20509;-67
2022/11/09 10:21:07;;;;;;;14.63;9.45;;;;;;;15.41;83.16;101260.41;5072979;28;20067;-67
2022/11/09 10:24:32;;;;;;;14.45;8.80;;;;;;;15.60;82.35;101260.13;5072037;28;20393;-67
2022/11/09 10:27:00;;;;;;;13.60;8.13;;;;;;;15.49;80.55;101256.34;5029019;28;20526;-67
2022/11/09 10:29:40;;;;;;;12.60;8.75;;;;;;;15.63;80.79;101247.19;5029268;28;20034;-68
2022/11/09 10:32:13;;;;;;;15.30;8.35;;;;;;;15.84;80.57;101256.50;5029451;28;20038;-67
2022/11/09 10:35:14;;;;;;;16.27;7.97;;;;;;;16.02;78.65;101245.69;5029063;28;20037;-68
2022/11/09 10:37:45;;;;;;;12.32;8.07;;;;;;;15.80;78.96;101241.56;4970365;28;20121;-68
2022/11/09 10:40:17;;;;;;;12.75;8.38;;;;;;;15.91;79.77;101231.50;4970995;28;20050;-67
2022/11/09 10:42:48;;;;;;;14.00;8.88;;;;;;;16.09;80.34;101231.13;4969792;28;20050;-67
2022/11/09 10:45:34;;;;;;;13.48;8.15;;;;;;;16.05;77.93;101218.84;4970282;28;20125;-67
2022/11/09 10:48:00;;;;;;;17.95;8.27;;;;;;;16.17;77.83;101240.00;4970014;28;20504;-67
2022/11/09 10:50:45;;;;;;;12.57;8.25;;;;;;;16.18;77.25;101226.13;4970263;28;20066;-67
2022/11/09 10:53:21;;;;;;;21.50;8.45;;;;;;;16.20;76.63;101205.34;4970004;28;20043;-67
2022/11/09 10:56:14;;;;;;;18.08;8.38;;;;;;;16.33;76.31;101215.22;4969726;28;20077;-67
2022/11/09 10:58:48;;;;;;;15.05;8.68;;;;;;;16.45;75.87;101214.66;5016514;28;20060;-67
2022/11/09 11:01:15;;;;;;;13.23;8.55;;;;;;;16.55;75.36;101224.47;5028490;28;20041;-67
2022/11/09 11:03:43;;;;;;;13.98;8.65;;;;;;;16.36;76.06;101209.22;5026629;28;20072;-67
2022/11/09 11:06:16;;;;;;;10.75;8.35;;;;;;;16.47;75.59;101206.03;5028769;28;20075;-67
2022/11/09 11:08:50;;;;;;;13.55;9.07;;;;;;;16.44;74.98;101187.72;5028251;28;20139;-67
2022/11/09 11:11:26;;;;;;;13.40;8.38;;;;;;;16.63;75.04;101202.06;5028662;28;20033;-67
2022/11/09 11:14:13;;;;;;;15.55;9.43;;;;;;;16.79;75.46;101195.47;5038983;28;20051;-67
2022/11/09 11:16:40;;;;;;;13.82;8.90;;;;;;;16.25;74.53;101089.09;5071247;28;20036;-67
2022/11/09 11:19:30;;;;;;;19.05;10.27;;;;;;;16.31;74.15;101087.53;5070458;28;20025;-67
2022/11/09 11:22:11;;;;;;;13.32;9.20;;;;;;;16.86;73.99;101180.88;5070636;28;20013;-67
2022/11/09 11:25:01;;;;;;;17.63;9.70;;;;;;;16.84;74.18;101176.47;5070743;28;20028;-67
2022/11/09 11:27:46;;;;;;;13.45;10.38;;;;;;;16.70;74.25;101176.13;5070331;28;20025;-67
2022/11/09 11:30:14;;;;;;;16.17;9.75;;;;;;;16.14;74.97;101078.44;5070316;28;20036;-67
2022/11/09 11:32:40;;;;;;;13.23;9.73;;;;;;;16.31;74.66;101105.75;5070368;28;20066;-68
2022/11/09 11:35:37;;;;;;;16.95;9.75;;;;;;;16.79;74.67;101169.41;5070397;28;20021;-66
2022/11/09 11:38:17;;;;;;;12.73;9.82;;;;;;;16.86;76.41;101183.47;5055452;28;20048;-67
2022/11/09 11:40:49;;;;;;;12.90;9.73;;;;;;;16.43;73.83;101083.44;5048690;28;20577;-67
2022/11/09 11:43:23;;;;;;;23.48;11.35;;;;;;;17.05;73.65;101173.50;5053902;28;20508;-68
2022/11/09 11:46:02;;;;;;;18.00;10.25;;;;;;;17.08;73.40;101169.19;5067175;28;20036;-67
2022/11/09 11:49:18;;;;;;;22.85;11.88;;;;;;;17.08;73.53;101163.09;5065787;28;20057;-67
2022/11/09 11:52:15;;;;;;;18.85;11.13;;;;;;;16.98;74.62;101159.41;5008463;28;20096;-66
2022/11/09 11:54:46;;;;;;;19.45;11.60;;;;;;;16.94;74.42;101162.81;5006683;28;20058;-66
2022/11/09 11:57:35;;;;;;;14.75;10.05;;;;;;;16.35;74.43;101049.38;5007010;28;20593;-69
2022/11/09 12:00:11;;;;;;;14.52;10.05;;;;;;;15.87;73.70;100964.06;5008024;28;20030;-67
2022/11/09 12:02:51;;;;;;;17.27;10.77;;;;;;;16.92;74.41;101154.97;5007770;28;20120;-67
2022/11/09 12:05:49;;;;;;;20.38;11.68;;;;;;;16.31;76.38;101039.72;5007397;28;20041;-67
2022/11/09 12:08:35;;;;;;;16.85;10.90;;;;;;;17.00;75.13;101143.78;5006908;28;20590;-67
2022/11/09 12:11:21;;;;;;;17.25;11.05;;;;;;;16.98;75.76;101146.38;5006681;28;20034;-67
2022/11/09 12:14:07;;;;;;;21.35;11.70;;;;;;;16.96;75.68;101148.94;5004475;28;20113;-67
2022/11/09 12:16:58;;;;;;;18.13;10.68;;;;;;;17.01;75.30;101140.34;4987872;28;20058;-68